Time;durP1;ratioP1;P1;durP2;ratioP2;P2;SDS_P1;SDS_P2;PMS_P1;PMS_P2;Temp;Humidity;BMP_temperature;BMP_pressure;BME280_temperature;BME280_humidity;BME280_pressure;Samples;Min_cycle;Max_cycle;Signal;HPM_P1;HPM_P2
2023/07/24 00:01:15;;;;;;;9.25;4.40;;;;;;;23.70;60.74;98910.13;4468108;32;32659;-89
2023/07/24 00:03:44;;;;;;;8.00;4.68;;;;;;;23.65;61.07;98902.34;4480838;32;34272;-89
2023/07/24 00:06:11;;;;;;;6.87;4.03;;;;;;;23.82;60.46;98898.13;4482074;32;34785;-88
2023/07/24 00:08:39;;;;;;;7.75;4.90;;;;;;;23.76;60.66;98905.41;4481979;31;34187;-90
2023/07/24 00:11:07;;;;;;;8.85;4.47;;;;;;;23.77;60.72;98900.97;4482109;32;33007;-90
2023/07/24 00:13:35;;;;;;;8.98;4.70;;;;;;;23.70;60.88;98895.09;4482140;32;33891;-89
2023/07/24 00:16:09;;;;;;;8.05;4.80;;;;;;;23.63;61.25;98890.97;4482139;32;34040;-92
2023/07/24 00:18:36;;;;;;;7.95;5.22;;;;;;;23.46;61.98;98890.88;4467727;32;33721;-89
2023/07/24 00:21:04;;;;;;;8.77;5.43;;;;;;;23.53;61.72;98902.91;4480702;32;34036;-91
2023/07/24 00:23:31;;;;;;;9.43;4.68;;;;;;;23.55;61.73;98893.09;4467538;32;33949;-89
2023/07/24 00:25:59;;;;;;;10.07;5.03;;;;;;;23.59;61.47;98897.31;4481729;32;34005;-89
2023/07/24 00:28:26;;;;;;;8.18;4.50;;;;;;;23.58;61.63;98890.31;4480866;32;34273;-92
2023/07/24 00:30:55;;;;;;;8.10;4.78;;;;;;;23.66;61.32;98885.56;4467511;32;32404;-89
2023/07/24 00:33:23;;;;;;;8.40;5.40;;;;;;;23.50;62.17;98887.16;4480379;32;33802;-92
2023/07/24 00:35:55;;;;;;;7.65;4.40;;;;;;;23.41;62.49;98883.16;4480381;32;34329;-89
2023/07/24 00:38:23;;;;;;;6.70;4.57;;;;;;;23.44;62.35;98879.50;4482275;32;33795;-90
2023/07/24 00:40:50;;;;;;;9.00;5.00;;;;;;;23.63;61.56;98877.72;4482607;32;33397;-90
2023/07/24 00:43:18;;;;;;;9.07;4.90;;;;;;;23.47;62.28;98879.34;4482679;32;34625;-89
2023/07/24 00:45:46;;;;;;;9.43;5.45;;;;;;;23.48;62.31;98871.34;4483841;32;33908;-89
2023/07/24 00:48:15;;;;;;;7.47;5.10;;;;;;;23.50;62.22;98876.59;4482701;32;33600;-92
2023/07/24 00:50:43;;;;;;;6.70;4.70;;;;;;;23.54;61.81;98867.56;4482714;32;33312;-89
2023/07/24 00:53:11;;;;;;;8.57;5.03;;;;;;;23.54;62.21;98872.87;4482733;32;33361;-92
2023/07/24 00:55:40;;;;;;;9.38;5.45;;;;;;;23.46;62.39;98862.62;4482374;32;35010;-89
2023/07/24 00:58:11;;;;;;;9.88;5.30;;;;;;;23.65;61.79;98864.44;4483842;32;33853;-91
2023/07/24 01:00:39;;;;;;;7.45;5.32;;;;;;;23.66;61.69;98863.50;4469398;32;32687;-90
2023/07/24 01:03:08;;;;;;;7.72;5.20;;;;;;;23.64;61.66;98858.31;4482501;32;33269;-92
2023/07/24 01:05:37;;;;;;;8.40;5.43;;;;;;;23.62;61.72;98852.22;4469807;32;33430;-89
2023/07/24 01:08:04;;;;;;;6.82;4.72;;;;;;;23.65;61.96;98861.81;4483911;32;33396;-90
2023/07/24 01:10:32;;;;;;;9.18;4.50;;;;;;;23.67;61.90;98855.53;4482588;32;33417;-90
2023/07/24 01:13:06;;;;;;;8.60;4.85;;;;;;;23.72;61.56;98858.00;4483650;32;34345;-91
2023/07/24 01:15:36;;;;;;;8.23;5.32;;;;;;;23.62;62.11;98865.44;4482082;32;33901;-88
2023/07/24 01:18:11;;;;;;;9.75;5.53;;;;;;;23.66;61.90;98858.22;4482465;32;32961;-93
2023/07/24 01:20:51;;;;;;;8.27;5.05;;;;;;;23.71;61.99;98858.91;4482340;32;33330;-90
2023/07/24 01:23:52;;;;;;;8.40;5.00;;;;;;;23.70;61.78;98858.03;4469355;32;34780;-92
2023/07/24 01:26:21;;;;;;;7.97;4.93;;;;;;;23.68;62.16;98851.97;4476614;32;34507;-91
2023/07/24 01:28:51;;;;;;;7.97;5.05;;;;;;;23.51;62.64;98859.78;4469654;32;33848;-92
2023/07/24 01:31:19;;;;;;;6.55;4.75;;;;;;;23.43;62.84;98852.19;4482156;32;32947;-89
2023/07/24 01:33:47;;;;;;;8.05;5.20;;;;;;;23.54;62.37;98846.41;4483593;32;33868;-90
2023/07/24 01:36:18;;;;;;;7.80;4.82;;;;;;;23.47;62.69;98851.09;4469658;32;33922;-90
2023/07/24 01:38:47;;;;;;;8.60;4.95;;;;;;;23.54;62.33;98849.06;4469030;32;33985;-90
2023/07/24 01:41:15;;;;;;;8.38;5.22;;;;;;;23.63;62.11;98851.28;4482793;32;33129;-93
2023/07/24 01:43:43;;;;;;;9.02;5.45;;;;;;;23.53;62.24;98850.00;4483603;32;33412;-91
2023/07/24 01:46:11;;;;;;;8.32;5.25;;;;;;;23.48;62.56;98846.69;4482185;32;34854;-90
2023/07/24 01:48:39;;;;;;;9.23;5.55;;;;;;;23.50;62.51;98847.47;4483452;32;34248;-92
2023/07/24 01:51:06;;;;;;;8.25;5.50;;;;;;;23.39;62.76;98847.94;4481916;32;33345;-91
2023/07/24 01:53:33;;;;;;;8.95;5.45;;;;;;;23.42;62.81;98847.81;4468991;32;34314;-92
2023/07/24 01:56:01;;;;;;;9.05;5.70;;;;;;;23.40;62.95;98846.16;4483509;32;33781;-93
2023/07/24 01:58:29;;;;;;;8.07;5.53;;;;;;;23.39;63.05;98847.09;4483284;32;33633;-93
2023/07/24 02:00:56;;;;;;;8.07;5.53;;;;;;;23.36;63.24;98847.22;4483304;32;33331;-91
2023/07/24 02:03:24;;;;;;;8.18;5.95;;;;;;;23.45;62.60;98850.34;4483307;32;33658;-91
2023/07/24 02:05:52;;;;;;;10.15;6.05;;;;;;;23.37;62.99;98847.16;4469143;32;33435;-92
2023/07/24 02:08:19;;;;;;;8.27;5.15;;;;;;;23.41;62.93;98842.56;4468943;32;32693;-90
2023/07/24 02:10:50;;;;;;;9.00;5.80;;;;;;;23.46;62.83;98843.25;4482025;32;33385;-92
2023/07/24 02:13:18;;;;;;;7.60;5.00;;;;;;;23.49;62.74;98843.97;4482973;32;33814;-91
2023/07/24 02:15:48;;;;;;;10.02;5.70;;;;;;;23.48;62.76;98852.81;4481766;32;33428;-92
2023/07/24 02:18:15;;;;;;;9.90;5.68;;;;;;;23.40;63.07;98846.16;4468992;32;33566;-92
2023/07/24 02:20:49;;;;;;;8.38;5.28;;;;;;;23.53;62.58;98845.56;4481996;32;33077;-92
2023/07/24 02:23:17;;;;;;;9.25;5.37;;;;;;;23.51;62.86;98841.25;4482044;32;33909;-92
2023/07/24 02:25:45;;;;;;;9.75;6.10;;;;;;;23.58;62.58;98841.84;4469039;32;33109;-92
2023/07/24 02:28:12;;;;;;;8.75;5.53;;;;;;;23.49;62.99;98845.78;4482775;32;34466;-90
2023/07/24 02:30:40;;;;;;;9.15;6.10;;;;;;;23.56;62.97;98836.59;4481724;32;33078;-91
2023/07/24 02:33:07;;;;;;;8.93;6.03;;;;;;;23.63;62.89;98838.03;4481805;32;33671;-92
2023/07/24 02:35:39;;;;;;;8.23;5.50;;;;;;;23.58;63.04;98831.25;4468730;32;33516;-92
2023/07/24 02:38:07;;;;;;;7.43;5.47;;;;;;;23.62;62.86;98846.91;4468991;32;33535;-91
2023/07/24 02:40:35;;;;;;;10.25;6.70;;;;;;;23.67;62.51;98837.00;4481594;32;34148;-93
2023/07/24 02:43:03;;;;;;;8.43;5.22;;;;;;;23.57;63.00;98846.28;4481711;32;33190;-92
2023/07/24 02:45:34;;;;;;;10.30;5.78;;;;;;;23.51;63.16;98846.53;4468960;32;32591;-92
2023/07/24 02:48:02;;;;;;;8.48;5.72;;;;;;;23.60;62.96;98846.16;4481878;32;33734;-91
2023/07/24 02:50:30;;;;;;;8.10;6.05;;;;;;;23.69;62.65;98842.25;4456031;32;32583;-92
2023/07/24 02:52:58;;;;;;;9.93;5.80;;;;;;;23.57;63.09;98841.00;4481787;32;33923;-93
2023/07/24 02:55:25;;;;;;;8.00;5.28;;;;;;;23.59;62.99;98848.84;4468748;32;33716;-90
2023/07/24 02:57:53;;;;;;;9.30;5.32;;;;;;;23.54;63.11;98839.31;4481829;32;34077;-92
2023/07/24 03:00:21;;;;;;;9.85;5.53;;;;;;;23.65;62.77;98838.84;4468213;32;34299;-92
2023/07/24 03:02:49;;;;;;;7.82;5.55;;;;;;;23.56;63.07;98852.47;4481925;32;34496;-91
2023/07/24 03:05:17;;;;;;;7.97;5.75;;;;;;;23.52;63.03;98842.97;4468924;32;34063;-92
2023/07/24 03:07:44;;;;;;;8.50;5.40;;;;;;;23.57;62.78;98840.13;4468772;32;33175;-91
2023/07/24 03:10:12;;;;;;;8.90;6.22;;;;;;;23.49;62.96;98843.13;4481373;32;32677;-92
2023/07/24 03:12:39;;;;;;;8.35;5.40;;;;;;;23.53;62.69;98836.75;4482828;32;33612;-90
2023/07/24 03:15:07;;;;;;;9.82;6.00;;;;;;;23.50;62.71;98839.53;4468687;32;33843;-92
2023/07/24 03:17:35;;;;;;;9.75;5.95;;;;;;;23.54;62.34;98827.87;4481408;32;33852;-93
2023/07/24 03:20:14;;;;;;;7.53;5.53;;;;;;;23.41;62.68;98826.72;4468686;32;33285;-91
2023/07/24 03:22:41;;;;;;;7.85;5.50;;;;;;;23.43;62.76;98830.16;4482848;32;33893;-92
2023/07/24 03:25:09;;;;;;;9.23;5.78;;;;;;;23.45;62.60;98828.28;4481129;32;34808;-90
2023/07/24 03:27:37;;;;;;;9.13;5.87;;;;;;;23.37;62.83;98833.06;4481315;32;33508;-92
2023/07/24 03:30:05;;;;;;;8.38;5.75;;;;;;;23.28;63.08;98829.91;4468474;32;33912;-92
2023/07/24 03:32:33;;;;;;;8.55;5.97;;;;;;;23.24;63.30;98828.31;4481419;32;34878;-93
2023/07/24 03:35:00;;;;;;;8.52;6.03;;;;;;;23.26;63.19;98823.84;4455804;32;33570;-91
2023/07/24 03:37:28;;;;;;;10.70;5.70;;;;;;;23.19;63.74;98827.69;4482879;32;33003;-90
2023/07/24 03:39:56;;;;;;;9.05;6.15;;;;;;;23.22;63.76;98827.56;4455346;32;33008;-91
2023/07/24 03:42:28;;;;;;;9.38;5.60;;;;;;;23.21;63.86;98828.47;4482649;32;35204;-92
2023/07/24 03:44:56;;;;;;;9.20;6.20;;;;;;;23.25;63.62;98827.41;4481200;32;34907;-92
2023/07/24 03:47:24;;;;;;;8.80;6.30;;;;;;;;;;4481307;32;33897;-92
2023/07/24 03:49:51;;;;;;;9.13;5.60;;;;;;;23.36;62.87;98816.34;4482464;32;34535;-92
2023/07/24 03:52:19;;;;;;;8.30;6.18;;;;;;;23.31;63.24;98821.00;4480847;32;34717;-91
2023/07/24 03:54:47;;;;;;;8.85;6.07;;;;;;;23.29;63.45;98823.69;4480862;32;33140;-92
2023/07/24 03:57:14;;;;;;;8.38;6.10;;;;;;;23.33;63.42;98815.62;4468113;32;32660;-90
2023/07/24 03:59:41;;;;;;;9.88;6.25;;;;;;;23.38;63.13;98818.94;4467922;32;33459;-90
2023/07/24 04:02:09;;;;;;;9.45;6.25;;;;;;;23.46;62.58;98816.78;4468050;32;34023;-90
2023/07/24 04:04:37;;;;;;;9.05;6.25;;;;;;;23.49;62.52;98819.31;4482214;32;34638;-90
2023/07/24 04:07:05;;;;;;;9.07;5.55;;;;;;;23.42;63.07;98816.06;4480622;32;32827;-92
2023/07/24 04:09:33;;;;;;;8.90;6.28;;;;;;;23.54;63.06;98819.94;4480628;32;32699;-90
2023/07/24 04:12:00;;;;;;;9.05;6.40;;;;;;;23.59;62.92;98817.94;4481575;32;33861;-91
2023/07/24 04:14:28;;;;;;;9.73;5.70;;;;;;;23.42;64.00;98825.81;4469659;32;33863;-91
2023/07/24 04:16:56;;;;;;;9.02;6.03;;;;;;;23.74;62.52;98814.63;4469694;32;33897;-92
2023/07/24 04:19:23;;;;;;;9.77;6.30;;;;;;;23.76;62.44;98818.06;4482828;32;34179;-92
2023/07/24 04:21:51;;;;;;;8.23;5.82;;;;;;;23.80;62.51;98818.78;4469567;32;34891;-90
2023/07/24 04:24:18;;;;;;;8.23;5.47;;;;;;;24.01;62.23;98815.09;4482692;32;33553;-92
2023/07/24 04:26:46;;;;;;;7.50;5.90;;;;;;;24.19;61.88;98808.06;4484048;32;33595;-91
2023/07/24 04:29:14;;;;;;;8.73;6.10;;;;;;;24.48;61.24;98811.13;4469482;32;32071;-92
2023/07/24 04:31:41;;;;;;;8.40;5.80;;;;;;;24.75;60.10;98817.69;4482871;32;33750;-90
2023/07/24 04:34:09;;;;;;;11.25;7.10;;;;;;;24.86;60.25;98813.66;4482865;32;33954;-92
2023/07/24 04:36:36;;;;;;;10.80;6.95;;;;;;;24.84;61.14;98810.19;4482537;32;32417;-91
2023/07/24 04:39:04;;;;;;;10.07;6.90;;;;;;;25.05;60.49;98810.91;4483017;32;33084;-91
2023/07/24 04:41:31;;;;;;;11.73;6.70;;;;;;;25.46;59.51;98808.75;4482864;32;34147;-90
2023/07/24 04:43:59;;;;;;;11.60;7.43;;;;;;;25.89;58.04;98801.12;4469666;32;34198;-92
2023/07/24 04:46:26;;;;;;;11.30;7.00;;;;;;;25.96;57.73;98805.16;4482844;32;34379;-91
2023/07/24 04:48:55;;;;;;;8.35;6.07;;;;;;;26.13;57.13;98805.03;4469785;32;32113;-91
2023/07/24 04:51:22;;;;;;;10.27;6.60;;;;;;;26.72;55.73;98801.72;4456323;32;33567;-91
2023/07/24 04:53:50;;;;;;;10.98;6.32;;;;;;;26.67;56.19;98807.31;4469475;32;33499;-91
2023/07/24 04:56:18;;;;;;;10.68;6.95;;;;;;;26.82;55.49;98803.75;4482629;32;33866;-92
2023/07/24 04:58:45;;;;;;;9.88;6.25;;;;;;;27.01;55.14;98807.94;4469490;32;33048;-92
2023/07/24 05:01:12;;;;;;;11.77;6.20;;;;;;;27.33;54.03;98816.66;4482550;32;33051;-91
2023/07/24 05:03:42;;;;;;;8.65;6.30;;;;;;;27.33;53.80;98814.84;4483678;32;34845;-91
2023/07/24 05:06:10;;;;;;;8.00;5.62;;;;;;;27.50;53.58;98812.94;4456261;32;32734;-91
2023/07/24 05:08:37;;;;;;;8.93;5.80;;;;;;;27.81;52.65;98814.59;4483769;31;33789;-91
2023/07/24 05:11:05;;;;;;;9.80;5.87;;;;;;;28.24;51.99;98817.16;4483687;32;34053;-91
2023/07/24 05:13:32;;;;;;;8.85;6.53;;;;;;;28.30;52.14;98822.94;4482110;32;34838;-91
2023/07/24 05:16:00;;;;;;;10.75;5.97;;;;;;;28.64;51.35;98814.53;4482442;32;33127;-92
2023/07/24 05:18:28;;;;;;;11.07;6.20;;;;;;;28.81;50.57;98816.94;4483640;32;33455;-90
2023/07/24 05:20:55;;;;;;;8.98;5.50;;;;;;;28.42;51.03;98813.31;4469020;32;34192;-90
2023/07/24 05:23:23;;;;;;;9.98;6.65;;;;;;;28.96;50.39;98815.91;4481962;32;34894;-91
2023/07/24 05:26:00;;;;;;;10.60;6.65;;;;;;;28.55;50.74;98816.88;4482334;32;33330;-91
2023/07/24 05:28:31;;;;;;;12.52;6.75;;;;;;;28.83;50.78;98820.37;4482543;32;33118;-91
2023/07/24 05:31:02;;;;;;;9.82;6.05;;;;;;;28.71;50.98;98815.84;4482419;32;34676;-93
2023/07/24 05:33:31;;;;;;;10.15;6.20;;;;;;;29.00;50.23;98816.56;4469377;32;33438;-92
2023/07/24 05:35:59;;;;;;;12.75;5.97;;;;;;;28.59;51.32;98817.53;4469141;32;32826;-93
2023/07/24 05:38:27;;;;;;;10.07;6.35;;;;;;;28.69;51.60;98817.78;4482474;32;32811;-92
2023/07/24 05:40:58;;;;;;;8.15;5.30;;;;;;;28.84;51.42;98817.59;4482211;32;33475;-92
2023/07/24 05:43:27;;;;;;;10.68;6.68;;;;;;;29.05;50.66;98814.44;4482370;32;33954;-92
2023/07/24 05:45:56;;;;;;;9.73;6.03;;;;;;;28.80;50.94;98820.56;4469642;32;33135;-91
2023/07/24 05:48:23;;;;;;;10.02;5.93;;;;;;;29.03;50.38;98817.22;4468558;32;32840;-92
2023/07/24 05:50:51;;;;;;;10.38;6.32;;;;;;;29.05;50.98;98814.44;4456013;32;34071;-92
2023/07/24 05:53:19;;;;;;;10.98;7.00;;;;;;;28.55;52.43;98818.69;4483506;32;33801;-92
2023/07/24 05:55:46;;;;;;;9.35;6.72;;;;;;;28.30;52.70;98819.44;4456212;32;33445;-93
2023/07/24 05:58:14;;;;;;;12.02;6.75;;;;;;;28.40;53.17;98817.88;4469289;32;33091;-89
2023/07/24 06:00:42;;;;;;;8.98;6.22;;;;;;;27.80;54.97;98812.87;4483290;32;34698;-91
2023/07/24 06:03:09;;;;;;;13.57;6.97;;;;;;;28.28;54.03;98808.00;4483278;32;33677;-92
2023/07/24 06:05:37;;;;;;;10.65;6.82;;;;;;;27.98;54.88;98795.72;4468853;32;33977;-92
2023/07/24 06:08:04;;;;;;;12.13;7.55;;;;;;;27.98;54.85;98794.84;4468854;32;33842;-92
2023/07/24 06:10:32;;;;;;;10.88;6.37;;;;;;;28.40;53.93;98796.56;4469136;32;33009;-90
2023/07/24 06:13:00;;;;;;;13.20;7.07;;;;;;;28.73;52.57;98803.28;4481927;32;33968;-89
2023/07/24 06:15:27;;;;;;;11.02;6.50;;;;;;;28.77;51.94;98800.28;4483105;32;34469;-91
2023/07/24 06:17:55;;;;;;;10.48;6.70;;;;;;;28.70;52.70;98790.97;4481949;32;33917;-90
2023/07/24 06:20:22;;;;;;;9.95;7.07;;;;;;;28.37;54.48;98799.41;4483215;32;34302;-93
2023/07/24 06:22:50;;;;;;;13.25;7.62;;;;;;;27.98;55.34;98795.72;4481866;32;33525;-91
2023/07/24 06:25:18;;;;;;;11.45;7.80;;;;;;;28.55;53.50;98798.19;4468933;32;33185;-91
2023/07/24 06:27:45;;;;;;;12.23;6.87;;;;;;;28.88;52.91;98791.56;4468940;32;32568;-92
2023/07/24 06:30:13;;;;;;;11.75;7.62;;;;;;;28.62;53.72;98791.50;4481869;32;33899;-91
2023/07/24 06:32:43;;;;;;;13.05;7.93;;;;;;;28.42;53.92;98793.81;4482992;32;34984;-91
2023/07/24 06:35:11;;;;;;;15.32;7.10;;;;;;;29.01;52.66;98803.09;4482172;32;33817;-92
2023/07/24 06:37:38;;;;;;;10.15;6.65;;;;;;;29.17;52.21;98802.06;4481730;32;31934;-92
2023/07/24 06:40:07;;;;;;;12.70;7.68;;;;;;;29.58;51.62;98801.84;4481874;32;34878;-92
2023/07/24 06:42:35;;;;;;;13.75;7.62;;;;;;;29.72;50.63;98800.88;4468846;32;32648;-92
2023/07/24 06:45:03;;;;;;;11.55;7.97;;;;;;;29.91;50.19;98795.06;4482992;32;33332;-91
2023/07/24 06:47:34;;;;;;;9.60;6.43;;;;;;;29.01;52.77;98811.13;4482917;32;34266;-92
2023/07/24 06:50:02;;;;;;;16.95;6.97;;;;;;;29.65;51.68;98803.13;4483043;32;33835;-92
2023/07/24 06:52:31;;;;;;;13.70;6.57;;;;;;;29.38;52.38;98797.03;4468645;32;33220;-91
2023/07/24 06:54:59;;;;;;;9.75;6.45;;;;;;;29.70;51.98;98792.97;4468802;32;33913;-92
2023/07/24 06:57:27;;;;;;;10.93;6.80;;;;;;;29.82;51.16;98799.25;4481605;32;33437;-92
2023/07/24 06:59:54;;;;;;;11.25;6.82;;;;;;;29.83;50.95;98802.78;4482754;32;34648;-92
2023/07/24 07:02:22;;;;;;;10.15;6.60;;;;;;;29.67;51.20;98790.53;4481311;32;34009;-90
2023/07/24 07:04:50;;;;;;;10.18;5.78;;;;;;;28.62;53.96;98796.84;4483100;32;33503;-91
2023/07/24 07:07:17;;;;;;;10.35;6.60;;;;;;;29.08;53.18;98796.41;4455582;32;32134;-94
2023/07/24 07:09:45;;;;;;;12.85;6.72;;;;;;;29.46;52.30;98787.50;4481548;32;34005;-92
2023/07/24 07:12:13;;;;;;;12.05;6.65;;;;;;;30.03;51.69;98781.63;4482890;32;34864;-93
2023/07/24 07:14:40;;;;;;;10.95;6.22;;;;;;;30.07;50.25;98774.25;4481384;32;34261;-92
2023/07/24 07:17:08;;;;;;;9.63;6.45;;;;;;;30.25;50.84;98782.75;4468591;32;34264;-92
2023/07/24 07:19:36;;;;;;;13.82;6.65;;;;;;;29.79;51.09;98778.94;4482947;32;34025;-92
2023/07/24 07:22:05;;;;;;;13.62;6.40;;;;;;;29.29;52.08;98774.53;4481498;32;34545;-89
2023/07/24 07:24:33;;;;;;;12.82;7.18;;;;;;;29.87;50.95;98769.53;4482851;32;33200;-92
2023/07/24 07:27:00;;;;;;;14.50;6.75;;;;;;;30.17;49.48;98766.44;4481384;32;33358;-91
2023/07/24 07:29:28;;;;;;;12.37;7.15;;;;;;;30.16;50.03;98757.56;4468660;32;34444;-88
2023/07/24 07:31:56;;;;;;;12.75;7.03;;;;;;;30.05;50.32;98760.16;4481540;32;34054;-91
2023/07/24 07:34:23;;;;;;;11.75;6.97;;;;;;;30.08;49.10;98761.72;4482662;32;33369;-92
2023/07/24 07:36:51;;;;;;;9.82;6.22;;;;;;;29.57;50.46;98762.72;4468468;32;33315;-89
2023/07/24 07:39:19;;;;;;;16.20;6.93;;;;;;;29.47;51.29;98746.50;4482781;32;34179;-92
2023/07/24 07:41:49;;;;;;;10.13;6.53;;;;;;;29.36;51.36;98749.09;4481250;32;33447;-92
2023/07/24 07:44:24;;;;;;;11.00;6.45;;;;;;;30.19;49.46;98746.66;4481266;32;33444;-92
2023/07/24 07:46:52;;;;;;;11.27;6.57;;;;;;;30.79;48.17;98744.81;4482157;32;33127;-92
2023/07/24 07:49:20;;;;;;;14.98;6.85;;;;;;;30.71;48.66;98752.53;4468519;32;33931;-91
2023/07/24 07:51:48;;;;;;;10.77;6.93;;;;;;;30.05;49.96;98755.66;4482079;32;34144;-91
2023/07/24 07:54:15;;;;;;;11.38;7.15;;;;;;;30.61;47.91;98747.06;4482434;32;33441;-91
2023/07/24 07:56:43;;;;;;;11.18;7.05;;;;;;;30.81;48.13;98744.69;4482164;32;33116;-93
2023/07/24 07:59:11;;;;;;;11.23;6.70;;;;;;;30.96;47.79;98755.06;4468530;32;33551;-90
2023/07/24 08:01:42;;;;;;;9.93;6.50;;;;;;;30.46;49.14;98751.75;4482247;32;34599;-94
2023/07/24 08:04:09;;;;;;;12.37;7.07;;;;;;;30.08;49.39;98751.03;4481322;32;33136;-90
2023/07/24 08:06:37;;;;;;;14.55;7.55;;;;;;;30.50;49.80;98749.69;4482730;32;33204;-91
2023/07/24 08:09:04;;;;;;;12.88;7.20;;;;;;;30.40;49.33;98748.69;4481052;31;33701;-90
2023/07/24 08:11:32;;;;;;;12.65;7.72;;;;;;;30.92;48.46;98753.59;4480977;32;33699;-92
2023/07/24 08:13:59;;;;;;;11.18;7.10;;;;;;;30.72;49.86;98752.44;4467867;32;32990;-84
2023/07/24 08:16:27;;;;;;;11.95;7.97;;;;;;;30.68;49.28;98747.41;4481932;32;33090;-93
2023/07/24 08:18:55;;;;;;;11.65;7.43;;;;;;;30.85;48.62;98744.34;4480960;32;34295;-91
2023/07/24 08:21:24;;;;;;;12.60;7.00;;;;;;;31.04;48.12;98743.75;4480817;32;34031;-91
2023/07/24 08:23:52;;;;;;;10.55;7.40;;;;;;;31.06;48.13;98738.28;4467992;32;33854;-91
2023/07/24 08:26:20;;;;;;;11.48;7.47;;;;;;;31.02;48.04;98748.38;4481002;32;33358;-92
2023/07/24 08:28:47;;;;;;;12.60;7.18;;;;;;;31.42;46.34;98745.28;4467425;32;33296;-93
2023/07/24 08:31:14;;;;;;;11.77;7.43;;;;;;;31.21;47.11;98743.28;4481769;32;34144;-91
2023/07/24 08:33:42;;;;;;;13.43;6.82;;;;;;;30.69;47.39;98747.31;4467717;32;32638;-92
2023/07/24 08:36:12;;;;;;;12.95;7.95;;;;;;;30.96;47.37;98755.06;4480764;32;33010;-90
2023/07/24 08:38:40;;;;;;;13.85;8.00;;;;;;;31.24;46.00;98747.53;4480617;32;33586;-90
2023/07/24 08:41:11;;;;;;;16.70;8.02;;;;;;;31.01;46.27;98736.81;4480438;32;34052;-93
2023/07/24 08:43:40;;;;;;;13.13;7.35;;;;;;;31.16;45.90;98733.91;4480142;32;32553;-90
2023/07/24 08:46:09;;;;;;;13.60;7.78;;;;;;;31.49;46.70;98731.25;4480211;32;33174;-92
2023/07/24 08:48:39;;;;;;;13.38;7.03;;;;;;;31.09;46.72;98721.97;4480635;32;34849;-86
2023/07/24 08:51:11;;;;;;;12.25;7.85;;;;;;;30.93;46.05;98733.88;4481561;32;33724;-90
2023/07/24 08:53:40;;;;;;;11.35;7.78;;;;;;;30.72;46.02;98716.78;4480282;32;33975;-93
2023/07/24 08:56:09;;;;;;;15.32;7.93;;;;;;;30.57;46.77;98720.63;4481443;32;33065;-92
2023/07/24 08:58:39;;;;;;;12.98;7.68;;;;;;;30.84;45.94;98720.34;4481355;32;33646;-92
2023/07/24 09:01:08;;;;;;;15.70;8.02;;;;;;;31.05;46.66;98721.37;4482510;32;34139;-91
2023/07/24 09:03:36;;;;;;;13.02;7.82;;;;;;;30.94;45.79;98708.81;4483852;32;33392;-92
2023/07/24 09:06:06;;;;;;;13.57;7.60;;;;;;;31.54;45.73;98706.75;4482690;32;33188;-90
2023/07/24 09:08:39;;;;;;;12.60;7.20;;;;;;;30.83;47.12;98703.44;4482897;32;33589;-92
2023/07/24 09:11:08;;;;;;;12.98;7.60;;;;;;;31.11;46.26;98707.50;4483854;32;34787;-93
2023/07/24 09:13:40;;;;;;;11.50;7.05;;;;;;;31.45;44.70;98703.00;4469375;32;34161;-89
2023/07/24 09:16:07;;;;;;;11.88;6.55;;;;;;;31.38;44.07;98701.81;4483985;32;33524;-92
2023/07/24 09:18:43;;;;;;;14.18;7.05;;;;;;;31.35;44.19;98691.31;4482844;32;35011;-84
2023/07/24 09:21:13;;;;;;;11.30;7.30;;;;;;;31.26;43.58;98697.41;4484053;32;33640;-89
2023/07/24 09:23:43;;;;;;;15.13;7.22;;;;;;;31.56;43.02;98695.91;4470095;32;34351;-93
2023/07/24 09:26:10;;;;;;;11.20;7.57;;;;;;;31.66;42.53;98694.19;4482180;32;33336;-89
2023/07/24 09:28:38;;;;;;;12.65;6.97;;;;;;;31.50;40.92;98684.72;4483351;32;34073;-90
2023/07/24 09:31:05;;;;;;;17.55;7.93;;;;;;;31.59;38.35;98693.00;4482310;32;34016;-89
2023/07/24 09:33:35;;;;;;;12.50;7.15;;;;;;;31.94;39.69;98691.00;4483408;32;34611;-88
2023/07/24 09:36:04;;;;;;;15.48;8.40;;;;;;;32.15;37.71;98695.53;4482513;32;33571;-92
2023/07/24 09:38:32;;;;;;;13.75;8.02;;;;;;;32.35;37.71;98683.13;4469450;32;34102;-91
2023/07/24 09:41:02;;;;;;;13.18;8.23;;;;;;;31.85;36.04;98677.44;4482128;32;33766;-91
2023/07/24 09:43:30;;;;;;;14.77;7.40;;;;;;;32.24;36.98;98676.00;4483359;32;33258;-90
2023/07/24 09:46:07;;;;;;;17.10;8.02;;;;;;;32.45;36.71;98676.03;4483291;32;34227;-94
2023/07/24 09:48:36;;;;;;;14.48;8.43;;;;;;;32.75;36.82;98663.66;4482151;32;34744;-86
2023/07/24 09:51:12;;;;;;;13.13;7.97;;;;;;;32.54;35.69;98669.03;4482014;32;34232;-91
2023/07/24 09:54:00;;;;;;;18.05;9.20;;;;;;;32.84;35.53;98655.62;4482496;32;33449;-90
2023/07/24 09:56:29;;;;;;;15.30;8.05;;;;;;;32.83;35.32;98651.25;4468877;32;32452;-92
2023/07/24 09:59:16;;;;;;;11.95;7.37;;;;;;;32.67;35.47;98653.56;4471610;32;33925;-90
2023/07/24 10:01:44;;;;;;;14.73;8.75;;;;;;;32.84;35.76;98636.84;4482095;32;34953;-89
2023/07/24 10:04:14;;;;;;;15.10;8.40;;;;;;;32.84;35.78;98642.19;4484063;32;33728;-92
2023/07/24 10:06:43;;;;;;;12.70;7.82;;;;;;;33.13;35.36;98639.69;4483207;32;32461;-89
2023/07/24 10:09:11;;;;;;;12.25;8.13;;;;;;;33.12;35.03;98631.78;4483179;31;34784;-92
2023/07/24 10:11:39;;;;;;;15.15;8.13;;;;;;;33.13;35.69;98638.84;4481984;32;34105;-92
2023/07/24 10:14:06;;;;;;;15.38;8.05;;;;;;;32.91;35.03;98635.31;4469143;32;34157;-91
2023/07/24 10:16:34;;;;;;;15.13;7.70;;;;;;;32.89;34.90;98631.09;4481937;32;33055;-91
2023/07/24 10:19:12;;;;;;;13.43;8.02;;;;;;;33.07;35.61;98629.50;4482272;32;33967;-91
2023/07/24 10:21:46;;;;;;;14.43;7.82;;;;;;;33.28;34.62;98624.03;4468970;32;33529;-89
2023/07/24 10:24:15;;;;;;;15.23;7.90;;;;;;;33.34;34.60;98623.50;4483598;32;33530;-91
2023/07/24 10:26:58;;;;;;;16.40;8.70;;;;;;;33.23;34.03;98620.91;4482117;32;33510;-92
2023/07/24 10:29:25;;;;;;;15.98;8.40;;;;;;;33.06;34.76;98614.34;4469443;32;33540;-90
2023/07/24 10:31:54;;;;;;;14.82;8.43;;;;;;;33.32;35.02;98608.47;4483565;32;35040;-93
2023/07/24 10:34:22;;;;;;;13.48;7.78;;;;;;;33.20;34.91;98597.00;4483351;32;33784;-92
2023/07/24 10:36:49;;;;;;;12.75;7.80;;;;;;;33.21;33.58;98598.69;4481716;32;32162;-90
2023/07/24 10:39:21;;;;;;;13.40;8.15;;;;;;;33.45;33.81;98594.78;4483509;32;33650;-92
2023/07/24 10:41:48;;;;;;;14.80;8.15;;;;;;;33.63;34.04;98593.97;4481677;32;34587;-90
2023/07/24 10:44:16;;;;;;;16.73;7.57;;;;;;;33.66;33.60;98592.88;4483673;32;33965;-90
2023/07/24 10:46:43;;;;;;;16.55;9.07;;;;;;;33.63;33.38;98593.97;4481966;32;33460;-94
2023/07/24 10:49:11;;;;;;;14.65;8.15;;;;;;;33.70;34.12;98593.44;4482064;32;33212;-93
2023/07/24 10:51:39;;;;;;;14.10;8.10;;;;;;;33.65;33.16;98581.28;4483248;32;33946;-92
2023/07/24 10:54:06;;;;;;;11.93;7.45;;;;;;;33.67;34.42;98592.72;4481702;32;34399;-88
2023/07/24 10:56:36;;;;;;;13.13;7.55;;;;;;;33.98;33.47;98592.63;4483684;32;34260;-93
2023/07/24 10:59:04;;;;;;;16.80;8.05;;;;;;;34.07;32.86;98577.47;4469056;32;33663;-85
2023/07/24 11:01:32;;;;;;;12.02;7.35;;;;;;;34.06;33.21;98573.06;4483210;32;34272;-89
2023/07/24 11:04:02;;;;;;;13.77;7.60;;;;;;;33.99;34.53;98562.03;4483114;32;34644;-89
2023/07/24 11:06:29;;;;;;;13.13;7.65;;;;;;;33.84;33.64;98563.44;4483857;32;33104;-89
2023/07/24 11:08:59;;;;;;;13.98;7.40;;;;;;;33.77;33.65;98563.16;4483023;31;34795;-93
2023/07/24 11:11:33;;;;;;;15.73;8.57;;;;;;;33.60;33.80;98566.53;4482896;32;34334;-87
2023/07/24 11:14:03;;;;;;;11.52;7.70;;;;;;;33.57;33.31;98548.03;4483189;32;33986;-89
2023/07/24 11:16:31;;;;;;;15.70;8.05;;;;;;;33.45;33.51;98551.78;4483190;32;33701;-86
2023/07/24 11:18:59;;;;;;;14.05;8.07;;;;;;;33.24;34.47;98552.75;4482958;32;33792;-91
2023/07/24 11:21:28;;;;;;;13.90;7.87;;;;;;;33.56;33.90;98546.31;4482326;32;34085;-88
2023/07/24 11:23:57;;;;;;;18.20;8.00;;;;;;;33.62;34.09;98546.59;4481699;32;33127;-92
2023/07/24 11:26:25;;;;;;;12.07;7.05;;;;;;;33.67;34.55;98536.25;4481594;32;34116;-87
2023/07/24 11:28:53;;;;;;;13.43;7.45;;;;;;;33.50;32.46;98530.75;4483306;32;33745;-92
2023/07/24 11:31:21;;;;;;;13.32;7.72;;;;;;;33.68;34.01;98521.00;4482983;32;34987;-92
2023/07/24 11:33:50;;;;;;;12.27;6.90;;;;;;;33.83;33.17;98514.19;4482948;32;33568;-91
2023/07/24 11:36:19;;;;;;;13.52;7.47;;;;;;;34.27;32.91;98511.84;4481587;32;33362;-88